sensor_id;sensor_type;location;lat;lon;timestamp;P1;durP1;ratioP1;P2;durP2;ratioP2
32705;SDS011;19094;50.972;3.538;2022-07-29T00:01:48;4.70;;;2.30;;
32705;SDS011;19094;50.972;3.538;2022-07-29T00:04:14;7.68;;;2.42;;
32705;SDS011;19094;50.972;3.538;2022-07-29T00:06:40;7.30;;;2.92;;
32705;SDS011;19094;50.972;3.538;2022-07-29T00:09:06;7.15;;;2.50;;
32705;SDS011;19094;50.972;3.538;2022-07-29T00:11:31;5.38;;;2.42;;
32705;SDS011;19094;50.972;3.538;2022-07-29T00:13:57;6.85;;;3.15;;
32705;SDS011;19094;50.972;3.538;2022-07-29T00:16:23;11.75;;;2.75;;
32705;SDS011;19094;50.972;3.538;2022-07-29T00:18:49;6.72;;;2.30;;
32705;SDS011;19094;50.972;3.538;2022-07-29T00:21:14;8.55;;;2.55;;
32705;SDS011;19094;50.972;3.538;2022-07-29T00:23:40;6.38;;;2.50;;
32705;SDS011;19094;50.972;3.538;2022-07-29T00:26:06;4.28;;;2.10;;
32705;SDS011;19094;50.972;3.538;2022-07-29T00:28:31;4.05;;;2.13;;
32705;SDS011;19094;50.972;3.538;2022-07-29T00:30:57;8.40;;;2.70;;
32705;SDS011;19094;50.972;3.538;2022-07-29T00:33:22;5.70;;;2.53;;
32705;SDS011;19094;50.972;3.538;2022-07-29T00:35:48;6.70;;;3.20;;
32705;SDS011;19094;50.972;3.538;2022-07-29T00:38:18;6.25;;;2.83;;
32705;SDS011;19094;50.972;3.538;2022-07-29T00:40:45;5.50;;;2.65;;
32705;SDS011;19094;50.972;3.538;2022-07-29T00:43:11;11.70;;;2.72;;
32705;SDS011;19094;50.972;3.538;2022-07-29T00:45:38;5.93;;;2.60;;
32705;SDS011;19094;50.972;3.538;2022-07-29T00:48:04;7.35;;;3.10;;
32705;SDS011;19094;50.972;3.538;2022-07-29T00:50:32;9.05;;;2.95;;
32705;SDS011;19094;50.972;3.538;2022-07-29T00:52:58;9.65;;;3.10;;
32705;SDS011;19094;50.972;3.538;2022-07-29T00:55:24;9.88;;;2.95;;
32705;SDS011;19094;50.972;3.538;2022-07-29T00:57:50;8.45;;;3.03;;
32705;SDS011;19094;50.972;3.538;2022-07-29T01:00:21;5.18;;;2.63;;
32705;SDS011;19094;50.972;3.538;2022-07-29T01:02:49;7.63;;;3.40;;
32705;SDS011;19094;50.972;3.538;2022-07-29T01:05:19;10.75;;;3.17;;
32705;SDS011;19094;50.972;3.538;2022-07-29T01:07:48;7.32;;;3.17;;
32705;SDS011;19094;50.972;3.538;2022-07-29T01:10:16;11.13;;;4.28;;
32705;SDS011;19094;50.972;3.538;2022-07-29T01:12:44;11.98;;;3.55;;
32705;SDS011;19094;50.972;3.538;2022-07-29T01:15:13;9.18;;;3.55;;
32705;SDS011;19094;50.972;3.538;2022-07-29T01:17:43;6.03;;;3.28;;
32705;SDS011;19094;50.972;3.538;2022-07-29T01:22:54;5.03;;;3.08;;
32705;SDS011;19094;50.972;3.538;2022-07-29T01:28:38;6.30;;;2.90;;
32705;SDS011;19094;50.972;3.538;2022-07-29T01:31:24;6.37;;;3.20;;
32705;SDS011;19094;50.972;3.538;2022-07-29T01:34:07;10.98;;;3.97;;
32705;SDS011;19094;50.972;3.538;2022-07-29T01:36:37;7.80;;;3.47;;
32705;SDS011;19094;50.972;3.538;2022-07-29T01:39:10;6.40;;;3.45;;
32705;SDS011;19094;50.972;3.538;2022-07-29T01:41:40;8.35;;;3.63;;
32705;SDS011;19094;50.972;3.538;2022-07-29T01:44:20;7.82;;;3.90;;
32705;SDS011;19094;50.972;3.538;2022-07-29T01:46:56;11.52;;;3.70;;
32705;SDS011;19094;50.972;3.538;2022-07-29T01:49:29;8.02;;;3.72;;
32705;SDS011;19094;50.972;3.538;2022-07-29T01:52:11;9.40;;;3.60;;
32705;SDS011;19094;50.972;3.538;2022-07-29T01:54:45;9.85;;;3.88;;
32705;SDS011;19094;50.972;3.538;2022-07-29T01:57:15;6.95;;;3.88;;
32705;SDS011;19094;50.972;3.538;2022-07-29T01:59:46;9.40;;;3.78;;
32705;SDS011;19094;50.972;3.538;2022-07-29T02:02:16;8.77;;;4.18;;
32705;SDS011;19094;50.972;3.538;2022-07-29T02:04:44;9.32;;;4.15;;
32705;SDS011;19094;50.972;3.538;2022-07-29T02:07:13;12.60;;;4.20;;
32705;SDS011;19094;50.972;3.538;2022-07-29T02:09:43;9.45;;;3.90;;
32705;SDS011;19094;50.972;3.538;2022-07-29T02:12:10;8.57;;;3.70;;
32705;SDS011;19094;50.972;3.538;2022-07-29T02:14:40;9.40;;;4.30;;
32705;SDS011;19094;50.972;3.538;2022-07-29T02:17:10;6.90;;;3.80;;
32705;SDS011;19094;50.972;3.538;2022-07-29T02:19:37;6.63;;;3.67;;
32705;SDS011;19094;50.972;3.538;2022-07-29T02:22:04;6.90;;;3.65;;
32705;SDS011;19094;50.972;3.538;2022-07-29T02:24:32;7.90;;;3.60;;
32705;SDS011;19094;50.972;3.538;2022-07-29T02:27:01;6.13;;;3.33;;
32705;SDS011;19094;50.972;3.538;2022-07-29T02:29:28;13.07;;;3.90;;
32705;SDS011;19094;50.972;3.538;2022-07-29T02:31:57;8.77;;;4.05;;
32705;SDS011;19094;50.972;3.538;2022-07-29T02:34:25;17.23;;;4.72;;
32705;SDS011;19094;50.972;3.538;2022-07-29T02:36:53;10.05;;;4.00;;
32705;SDS011;19094;50.972;3.538;2022-07-29T02:39:20;11.73;;;4.28;;
32705;SDS011;19094;50.972;3.538;2022-07-29T02:41:48;10.15;;;3.95;;
32705;SDS011;19094;50.972;3.538;2022-07-29T02:44:22;6.78;;;3.97;;
32705;SDS011;19094;50.972;3.538;2022-07-29T02:47:02;8.25;;;4.32;;
32705;SDS011;19094;50.972;3.538;2022-07-29T02:49:40;7.72;;;4.25;;
32705;SDS011;19094;50.972;3.538;2022-07-29T02:52:44;8.85;;;4.57;;
32705;SDS011;19094;50.972;3.538;2022-07-29T02:55:25;7.72;;;4.40;;
32705;SDS011;19094;50.972;3.538;2022-07-29T03:00:29;13.55;;;5.30;;
32705;SDS011;19094;50.972;3.538;2022-07-29T03:02:58;9.68;;;4.75;;
32705;SDS011;19094;50.972;3.538;2022-07-29T03:05:26;8.45;;;4.70;;
32705;SDS011;19094;50.972;3.538;2022-07-29T03:07:57;9.63;;;4.80;;
32705;SDS011;19094;50.972;3.538;2022-07-29T03:10:26;8.60;;;4.68;;
32705;SDS011;19094;50.972;3.538;2022-07-29T03:12:52;6.95;;;4.18;;
32705;SDS011;19094;50.972;3.538;2022-07-29T03:15:20;10.57;;;4.75;;
32705;SDS011;19094;50.972;3.538;2022-07-29T03:17:46;11.82;;;4.80;;
32705;SDS011;19094;50.972;3.538;2022-07-29T03:20:14;10.18;;;4.80;;
32705;SDS011;19094;50.972;3.538;2022-07-29T03:22:42;7.55;;;4.55;;
32705;SDS011;19094;50.972;3.538;2022-07-29T03:25:11;7.07;;;3.90;;
32705;SDS011;19094;50.972;3.538;2022-07-29T03:27:39;7.20;;;4.18;;
32705;SDS011;19094;50.972;3.538;2022-07-29T03:30:05;8.23;;;4.45;;
32705;SDS011;19094;50.972;3.538;2022-07-29T03:32:32;6.93;;;3.70;;
32705;SDS011;19094;50.972;3.538;2022-07-29T03:34:58;6.63;;;3.75;;
32705;SDS011;19094;50.972;3.538;2022-07-29T03:37:24;8.32;;;4.72;;
32705;SDS011;19094;50.972;3.538;2022-07-29T03:39:50;21.45;;;4.55;;
32705;SDS011;19094;50.972;3.538;2022-07-29T03:42:17;10.20;;;3.75;;
32705;SDS011;19094;50.972;3.538;2022-07-29T03:44:47;10.30;;;4.40;;
32705;SDS011;19094;50.972;3.538;2022-07-29T03:47:15;5.65;;;3.47;;
32705;SDS011;19094;50.972;3.538;2022-07-29T03:49:44;8.98;;;4.00;;
32705;SDS011;19094;50.972;3.538;2022-07-29T03:52:13;11.27;;;4.10;;
32705;SDS011;19094;50.972;3.538;2022-07-29T03:54:39;8.93;;;4.05;;
32705;SDS011;19094;50.972;3.538;2022-07-29T03:57:05;11.90;;;4.20;;
32705;SDS011;19094;50.972;3.538;2022-07-29T03:59:32;8.65;;;3.47;;
32705;SDS011;19094;50.972;3.538;2022-07-29T04:01:59;6.75;;;4.15;;
32705;SDS011;19094;50.972;3.538;2022-07-29T04:04:27;8.65;;;3.55;;
32705;SDS011;19094;50.972;3.538;2022-07-29T04:06:53;13.65;;;4.25;;
32705;SDS011;19094;50.972;3.538;2022-07-29T04:09:18;9.82;;;4.35;;
32705;SDS011;19094;50.972;3.538;2022-07-29T04:11:44;9.23;;;4.60;;
32705;SDS011;19094;50.972;3.538;2022-07-29T04:14:10;8.50;;;3.60;;
32705;SDS011;19094;50.972;3.538;2022-07-29T04:16:36;7.72;;;4.07;;
32705;SDS011;19094;50.972;3.538;2022-07-29T04:19:02;8.45;;;3.72;;
32705;SDS011;19094;50.972;3.538;2022-07-29T04:21:27;9.27;;;4.05;;
32705;SDS011;19094;50.972;3.538;2022-07-29T04:23:53;7.28;;;4.07;;
32705;SDS011;19094;50.972;3.538;2022-07-29T04:26:19;9.82;;;4.43;;
32705;SDS011;19094;50.972;3.538;2022-07-29T04:28:45;7.75;;;3.88;;
32705;SDS011;19094;50.972;3.538;2022-07-29T04:31:11;6.72;;;3.85;;
32705;SDS011;19094;50.972;3.538;2022-07-29T04:33:37;9.88;;;4.60;;
32705;SDS011;19094;50.972;3.538;2022-07-29T04:36:04;7.63;;;4.03;;
32705;SDS011;19094;50.972;3.538;2022-07-29T04:38:30;10.68;;;4.53;;
32705;SDS011;19094;50.972;3.538;2022-07-29T04:40:55;8.10;;;4.43;;
32705;SDS011;19094;50.972;3.538;2022-07-29T04:43:21;8.68;;;3.97;;
32705;SDS011;19094;50.972;3.538;2022-07-29T04:45:47;6.80;;;4.32;;
32705;SDS011;19094;50.972;3.538;2022-07-29T04:48:12;10.68;;;4.40;;
32705;SDS011;19094;50.972;3.538;2022-07-29T04:50:38;10.85;;;4.13;;
32705;SDS011;19094;50.972;3.538;2022-07-29T04:53:04;10.95;;;5.25;;
32705;SDS011;19094;50.972;3.538;2022-07-29T04:55:30;7.70;;;4.30;;
32705;SDS011;19094;50.972;3.538;2022-07-29T04:57:56;9.52;;;4.72;;
32705;SDS011;19094;50.972;3.538;2022-07-29T05:00:22;8.60;;;4.55;;
32705;SDS011;19094;50.972;3.538;2022-07-29T05:02:48;7.53;;;4.05;;
32705;SDS011;19094;50.972;3.538;2022-07-29T05:05:14;7.57;;;4.30;;
32705;SDS011;19094;50.972;3.538;2022-07-29T05:07:40;8.90;;;4.38;;
32705;SDS011;19094;50.972;3.538;2022-07-29T05:10:06;11.70;;;4.53;;
32705;SDS011;19094;50.972;3.538;2022-07-29T05:12:32;11.10;;;4.50;;
32705;SDS011;19094;50.972;3.538;2022-07-29T05:14:57;8.38;;;4.38;;
32705;SDS011;19094;50.972;3.538;2022-07-29T05:17:23;7.65;;;4.10;;
32705;SDS011;19094;50.972;3.538;2022-07-29T05:19:49;12.20;;;4.68;;
32705;SDS011;19094;50.972;3.538;2022-07-29T05:22:16;9.45;;;4.20;;
32705;SDS011;19094;50.972;3.538;2022-07-29T05:24:45;6.82;;;4.53;;
32705;SDS011;19094;50.972;3.538;2022-07-29T05:27:10;8.40;;;4.30;;
32705;SDS011;19094;50.972;3.538;2022-07-29T05:29:36;14.43;;;5.43;;
32705;SDS011;19094;50.972;3.538;2022-07-29T05:32:02;7.28;;;4.00;;
32705;SDS011;19094;50.972;3.538;2022-07-29T05:34:28;8.63;;;3.97;;
32705;SDS011;19094;50.972;3.538;2022-07-29T05:36:54;7.25;;;4.32;;
32705;SDS011;19094;50.972;3.538;2022-07-29T05:39:20;12.88;;;5.90;;
32705;SDS011;19094;50.972;3.538;2022-07-29T05:41:45;8.93;;;4.25;;
32705;SDS011;19094;50.972;3.538;2022-07-29T05:44:11;10.05;;;4.50;;
32705;SDS011;19094;50.972;3.538;2022-07-29T05:46:38;12.00;;;4.28;;
32705;SDS011;19094;50.972;3.538;2022-07-29T05:49:04;9.75;;;4.85;;
32705;SDS011;19094;50.972;3.538;2022-07-29T05:51:31;9.85;;;4.22;;
32705;SDS011;19094;50.972;3.538;2022-07-29T05:53:57;10.65;;;4.57;;
32705;SDS011;19094;50.972;3.538;2022-07-29T05:56:23;8.27;;;4.43;;
32705;SDS011;19094;50.972;3.538;2022-07-29T05:58:49;9.50;;;4.43;;
32705;SDS011;19094;50.972;3.538;2022-07-29T06:01:15;14.00;;;5.10;;
32705;SDS011;19094;50.972;3.538;2022-07-29T06:03:41;9.77;;;4.72;;
32705;SDS011;19094;50.972;3.538;2022-07-29T06:06:08;13.93;;;5.07;;
32705;SDS011;19094;50.972;3.538;2022-07-29T06:08:33;12.93;;;4.72;;
32705;SDS011;19094;50.972;3.538;2022-07-29T06:10:59;6.72;;;4.50;;
32705;SDS011;19094;50.972;3.538;2022-07-29T06:13:25;12.88;;;4.82;;
32705;SDS011;19094;50.972;3.538;2022-07-29T06:15:51;12.13;;;4.60;;
32705;SDS011;19094;50.972;3.538;2022-07-29T06:18:17;20.20;;;6.63;;
32705;SDS011;19094;50.972;3.538;2022-07-29T06:20:43;18.05;;;5.03;;
32705;SDS011;19094;50.972;3.538;2022-07-29T06:23:08;17.13;;;5.22;;
32705;SDS011;19094;50.972;3.538;2022-07-29T06:25:34;9.75;;;4.97;;
32705;SDS011;19094;50.972;3.538;2022-07-29T06:28:01;12.02;;;4.80;;
32705;SDS011;19094;50.972;3.538;2022-07-29T06:30:27;15.23;;;6.28;;
32705;SDS011;19094;50.972;3.538;2022-07-29T06:32:53;8.75;;;4.90;;
32705;SDS011;19094;50.972;3.538;2022-07-29T06:35:19;11.88;;;5.40;;
32705;SDS011;19094;50.972;3.538;2022-07-29T06:37:45;13.27;;;5.65;;
32705;SDS011;19094;50.972;3.538;2022-07-29T06:40:11;16.55;;;6.75;;
32705;SDS011;19094;50.972;3.538;2022-07-29T06:42:55;15.55;;;6.72;;
32705;SDS011;19094;50.972;3.538;2022-07-29T06:45:20;20.42;;;7.78;;
32705;SDS011;19094;50.972;3.538;2022-07-29T06:47:46;18.40;;;7.72;;
32705;SDS011;19094;50.972;3.538;2022-07-29T06:50:13;24.13;;;8.80;;
32705;SDS011;19094;50.972;3.538;2022-07-29T06:52:39;15.80;;;7.40;;
32705;SDS011;19094;50.972;3.538;2022-07-29T06:55:06;16.38;;;8.20;;
32705;SDS011;19094;50.972;3.538;2022-07-29T06:57:32;26.60;;;9.32;;
32705;SDS011;19094;50.972;3.538;2022-07-29T06:59:58;23.67;;;9.68;;
32705;SDS011;19094;50.972;3.538;2022-07-29T07:02:24;19.25;;;8.80;;
32705;SDS011;19094;50.972;3.538;2022-07-29T07:04:50;26.00;;;11.32;;
32705;SDS011;19094;50.972;3.538;2022-07-29T07:07:16;29.08;;;11.85;;
32705;SDS011;19094;50.972;3.538;2022-07-29T07:09:42;21.45;;;10.38;;
32705;SDS011;19094;50.972;3.538;2022-07-29T07:12:08;24.67;;;10.60;;
32705;SDS011;19094;50.972;3.538;2022-07-29T07:14:34;25.10;;;10.73;;
32705;SDS011;19094;50.972;3.538;2022-07-29T07:16:59;24.60;;;12.23;;
32705;SDS011;19094;50.972;3.538;2022-07-29T07:19:26;21.77;;;10.15;;
32705;SDS011;19094;50.972;3.538;2022-07-29T07:21:52;25.13;;;11.13;;
32705;SDS011;19094;50.972;3.538;2022-07-29T07:24:18;32.42;;;12.88;;
32705;SDS011;19094;50.972;3.538;2022-07-29T07:26:44;27.42;;;11.65;;
32705;SDS011;19094;50.972;3.538;2022-07-29T07:29:10;18.10;;;10.57;;
32705;SDS011;19094;50.972;3.538;2022-07-29T07:31:36;24.02;;;12.02;;
32705;SDS011;19094;50.972;3.538;2022-07-29T07:34:02;35.63;;;12.48;;
32705;SDS011;19094;50.972;3.538;2022-07-29T07:36:28;35.63;;;14.35;;
32705;SDS011;19094;50.972;3.538;2022-07-29T07:38:54;31.98;;;14.55;;
32705;SDS011;19094;50.972;3.538;2022-07-29T07:41:20;28.83;;;13.45;;
32705;SDS011;19094;50.972;3.538;2022-07-29T07:43:46;28.23;;;13.73;;
32705;SDS011;19094;50.972;3.538;2022-07-29T07:46:12;38.33;;;16.92;;
32705;SDS011;19094;50.972;3.538;2022-07-29T07:48:38;35.28;;;15.50;;
32705;SDS011;19094;50.972;3.538;2022-07-29T07:51:03;29.05;;;15.18;;
32705;SDS011;19094;50.972;3.538;2022-07-29T07:53:29;34.35;;;14.95;;
32705;SDS011;19094;50.972;3.538;2022-07-29T07:55:55;30.98;;;16.13;;
32705;SDS011;19094;50.972;3.538;2022-07-29T07:58:21;27.48;;;15.52;;
32705;SDS011;19094;50.972;3.538;2022-07-29T08:00:47;30.23;;;15.07;;
32705;SDS011;19094;50.972;3.538;2022-07-29T08:03:12;35.42;;;15.80;;
32705;SDS011;19094;50.972;3.538;2022-07-29T08:05:39;30.92;;;13.00;;
32705;SDS011;19094;50.972;3.538;2022-07-29T08:08:05;32.50;;;13.60;;
32705;SDS011;19094;50.972;3.538;2022-07-29T08:10:32;28.63;;;13.93;;
32705;SDS011;19094;50.972;3.538;2022-07-29T08:13:16;22.85;;;12.10;;
32705;SDS011;19094;50.972;3.538;2022-07-29T08:15:42;31.70;;;12.55;;
32705;SDS011;19094;50.972;3.538;2022-07-29T08:18:09;24.40;;;11.55;;
32705;SDS011;19094;50.972;3.538;2022-07-29T08:20:36;27.13;;;11.73;;
32705;SDS011;19094;50.972;3.538;2022-07-29T08:23:03;18.38;;;9.23;;
32705;SDS011;19094;50.972;3.538;2022-07-29T08:25:30;24.02;;;9.50;;
32705;SDS011;19094;50.972;3.538;2022-07-29T08:27:58;17.10;;;9.35;;
32705;SDS011;19094;50.972;3.538;2022-07-29T08:30:24;17.55;;;8.52;;
32705;SDS011;19094;50.972;3.538;2022-07-29T08:32:50;17.98;;;8.35;;
32705;SDS011;19094;50.972;3.538;2022-07-29T08:35:18;19.10;;;8.75;;
32705;SDS011;19094;50.972;3.538;2022-07-29T08:37:44;15.65;;;6.40;;
32705;SDS011;19094;50.972;3.538;2022-07-29T08:40:10;14.68;;;6.03;;
32705;SDS011;19094;50.972;3.538;2022-07-29T08:42:36;17.67;;;6.93;;
32705;SDS011;19094;50.972;3.538;2022-07-29T08:45:02;16.50;;;6.75;;
32705;SDS011;19094;50.972;3.538;2022-07-29T08:47:29;12.63;;;6.50;;
32705;SDS011;19094;50.972;3.538;2022-07-29T08:49:55;15.85;;;6.90;;
32705;SDS011;19094;50.972;3.538;2022-07-29T08:52:20;9.30;;;5.95;;
32705;SDS011;19094;50.972;3.538;2022-07-29T08:54:49;11.15;;;5.65;;
32705;SDS011;19094;50.972;3.538;2022-07-29T08:57:17;11.68;;;4.95;;
32705;SDS011;19094;50.972;3.538;2022-07-29T08:59:44;12.48;;;4.95;;
32705;SDS011;19094;50.972;3.538;2022-07-29T09:02:15;15.73;;;5.70;;
32705;SDS011;19094;50.972;3.538;2022-07-29T09:04:45;6.88;;;3.88;;
32705;SDS011;19094;50.972;3.538;2022-07-29T09:07:11;13.50;;;4.13;;
32705;SDS011;19094;50.972;3.538;2022-07-29T09:09:40;9.70;;;3.75;;
32705;SDS011;19094;50.972;3.538;2022-07-29T09:12:07;11.50;;;4.07;;
32705;SDS011;19094;50.972;3.538;2022-07-29T09:14:36;10.52;;;4.38;;
32705;SDS011;19094;50.972;3.538;2022-07-29T09:17:02;6.47;;;3.80;;
32705;SDS011;19094;50.972;3.538;2022-07-29T09:19:32;8.38;;;3.60;;
32705;SDS011;19094;50.972;3.538;2022-07-29T09:24:40;13.05;;;3.53;;
32705;SDS011;19094;50.972;3.538;2022-07-29T09:27:19;10.63;;;3.70;;
32705;SDS011;19094;50.972;3.538;2022-07-29T09:29:47;8.25;;;3.92;;
32705;SDS011;19094;50.972;3.538;2022-07-29T09:32:26;7.00;;;4.07;;
32705;SDS011;19094;50.972;3.538;2022-07-29T09:37:48;9.73;;;4.25;;
32705;SDS011;19094;50.972;3.538;2022-07-29T09:40:15;5.97;;;3.53;;
32705;SDS011;19094;50.972;3.538;2022-07-29T09:42:46;8.10;;;3.00;;
32705;SDS011;19094;50.972;3.538;2022-07-29T09:45:12;9.55;;;3.28;;
32705;SDS011;19094;50.972;3.538;2022-07-29T09:47:51;6.65;;;3.10;;
32705;SDS011;19094;50.972;3.538;2022-07-29T09:50:16;10.25;;;2.75;;
32705;SDS011;19094;50.972;3.538;2022-07-29T09:52:49;10.60;;;3.50;;
32705;SDS011;19094;50.972;3.538;2022-07-29T09:55:16;5.38;;;3.25;;
32705;SDS011;19094;50.972;3.538;2022-07-29T09:57:42;6.45;;;3.60;;
32705;SDS011;19094;50.972;3.538;2022-07-29T10:00:12;9.48;;;3.30;;
32705;SDS011;19094;50.972;3.538;2022-07-29T10:02:44;7.38;;;3.10;;
32705;SDS011;19094;50.972;3.538;2022-07-29T10:05:25;8.40;;;3.30;;
32705;SDS011;19094;50.972;3.538;2022-07-29T10:07:53;7.15;;;2.60;;
32705;SDS011;19094;50.972;3.538;2022-07-29T10:10:22;5.18;;;2.22;;
32705;SDS011;19094;50.972;3.538;2022-07-29T10:13:07;8.02;;;2.60;;
32705;SDS011;19094;50.972;3.538;2022-07-29T10:15:37;5.32;;;2.58;;
32705;SDS011;19094;50.972;3.538;2022-07-29T10:18:09;6.00;;;2.60;;
32705;SDS011;19094;50.972;3.538;2022-07-29T10:20:36;7.63;;;2.88;;
32705;SDS011;19094;50.972;3.538;2022-07-29T10:23:03;9.65;;;3.35;;
32705;SDS011;19094;50.972;3.538;2022-07-29T10:25:29;4.85;;;2.70;;
32705;SDS011;19094;50.972;3.538;2022-07-29T10:27:55;8.50;;;3.38;;
32705;SDS011;19094;50.972;3.538;2022-07-29T10:30:22;4.70;;;2.17;;
32705;SDS011;19094;50.972;3.538;2022-07-29T10:43:51;9.00;;;2.33;;
32705;SDS011;19094;50.972;3.538;2022-07-29T10:46:41;7.03;;;2.20;;
32705;SDS011;19094;50.972;3.538;2022-07-29T11:07:24;11.20;;;2.80;;
32705;SDS011;19094;50.972;3.538;2022-07-29T11:15:01;7.28;;;2.80;;
32705;SDS011;19094;50.972;3.538;2022-07-29T11:17:27;6.25;;;2.55;;
32705;SDS011;19094;50.972;3.538;2022-07-29T11:22:57;10.75;;;3.53;;
32705;SDS011;19094;50.972;3.538;2022-07-29T11:25:23;14.43;;;2.90;;
32705;SDS011;19094;50.972;3.538;2022-07-29T11:27:48;4.63;;;2.38;;
32705;SDS011;19094;50.972;3.538;2022-07-29T11:30:15;9.32;;;3.67;;
32705;SDS011;19094;50.972;3.538;2022-07-29T11:32:43;7.95;;;3.58;;
32705;SDS011;19094;50.972;3.538;2022-07-29T11:43:58;11.10;;;2.70;;
32705;SDS011;19094;50.972;3.538;2022-07-29T11:49:18;5.07;;;2.90;;
32705;SDS011;19094;50.972;3.538;2022-07-29T11:51:57;9.52;;;2.88;;
32705;SDS011;19094;50.972;3.538;2022-07-29T11:54:26;8.30;;;3.38;;
32705;SDS011;19094;50.972;3.538;2022-07-29T11:56:57;8.48;;;3.90;;
32705;SDS011;19094;50.972;3.538;2022-07-29T11:59:23;9.60;;;3.50;;
32705;SDS011;19094;50.972;3.538;2022-07-29T12:01:53;5.82;;;2.70;;
32705;SDS011;19094;50.972;3.538;2022-07-29T12:04:22;6.72;;;3.15;;
32705;SDS011;19094;50.972;3.538;2022-07-29T12:06:52;10.55;;;3.03;;
32705;SDS011;19094;50.972;3.538;2022-07-29T12:09:18;5.72;;;2.78;;
32705;SDS011;19094;50.972;3.538;2022-07-29T12:11:46;11.65;;;2.97;;
32705;SDS011;19094;50.972;3.538;2022-07-29T12:16:54;7.32;;;3.25;;
32705;SDS011;19094;50.972;3.538;2022-07-29T12:19:20;11.55;;;2.72;;
32705;SDS011;19094;50.972;3.538;2022-07-29T12:21:46;5.88;;;3.33;;
32705;SDS011;19094;50.972;3.538;2022-07-29T12:24:13;5.43;;;3.13;;
32705;SDS011;19094;50.972;3.538;2022-07-29T12:26:52;6.88;;;3.00;;
32705;SDS011;19094;50.972;3.538;2022-07-29T12:29:26;8.65;;;4.10;;
32705;SDS011;19094;50.972;3.538;2022-07-29T12:31:53;6.45;;;2.78;;
32705;SDS011;19094;50.972;3.538;2022-07-29T12:34:19;6.93;;;2.80;;
32705;SDS011;19094;50.972;3.538;2022-07-29T12:36:48;13.43;;;2.67;;
32705;SDS011;19094;50.972;3.538;2022-07-29T12:39:17;9.23;;;3.15;;
32705;SDS011;19094;50.972;3.538;2022-07-29T12:41:43;6.82;;;2.85;;
32705;SDS011;19094;50.972;3.538;2022-07-29T12:44:09;8.45;;;2.83;;
32705;SDS011;19094;50.972;3.538;2022-07-29T12:46:36;6.25;;;2.65;;
32705;SDS011;19094;50.972;3.538;2022-07-29T12:49:01;7.93;;;3.17;;
32705;SDS011;19094;50.972;3.538;2022-07-29T12:51:35;5.95;;;2.55;;
32705;SDS011;19094;50.972;3.538;2022-07-29T12:56:41;9.48;;;2.92;;
32705;SDS011;19094;50.972;3.538;2022-07-29T12:59:15;7.05;;;2.70;;
32705;SDS011;19094;50.972;3.538;2022-07-29T13:01:45;6.95;;;2.80;;
32705;SDS011;19094;50.972;3.538;2022-07-29T13:07:23;7.78;;;2.83;;
32705;SDS011;19094;50.972;3.538;2022-07-29T13:09:51;5.88;;;2.55;;
32705;SDS011;19094;50.972;3.538;2022-07-29T13:12:17;9.50;;;2.92;;
32705;SDS011;19094;50.972;3.538;2022-07-29T13:14:44;7.22;;;2.50;;
32705;SDS011;19094;50.972;3.538;2022-07-29T13:17:17;5.00;;;2.38;;
32705;SDS011;19094;50.972;3.538;2022-07-29T13:19:46;6.25;;;2.65;;
32705;SDS011;19094;50.972;3.538;2022-07-29T13:22:18;6.93;;;2.55;;
32705;SDS011;19094;50.972;3.538;2022-07-29T13:27:17;3.83;;;2.72;;
32705;SDS011;19094;50.972;3.538;2022-07-29T13:29:47;6.30;;;2.70;;
32705;SDS011;19094;50.972;3.538;2022-07-29T13:32:16;6.05;;;2.25;;
32705;SDS011;19094;50.972;3.538;2022-07-29T13:34:41;11.63;;;2.65;;
32705;SDS011;19094;50.972;3.538;2022-07-29T13:37:07;4.22;;;2.35;;
32705;SDS011;19094;50.972;3.538;2022-07-29T13:39:33;5.00;;;2.25;;
32705;SDS011;19094;50.972;3.538;2022-07-29T13:41:58;2.75;;;1.75;;
32705;SDS011;19094;50.972;3.538;2022-07-29T13:44:24;8.38;;;2.47;;
32705;SDS011;19094;50.972;3.538;2022-07-29T13:46:50;7.13;;;2.90;;
32705;SDS011;19094;50.972;3.538;2022-07-29T13:49:15;5.70;;;2.47;;
32705;SDS011;19094;50.972;3.538;2022-07-29T13:51:41;9.70;;;2.88;;
32705;SDS011;19094;50.972;3.538;2022-07-29T13:54:07;5.82;;;2.60;;
32705;SDS011;19094;50.972;3.538;2022-07-29T13:56:32;8.45;;;2.55;;
32705;SDS011;19094;50.972;3.538;2022-07-29T13:58:59;4.70;;;2.35;;
32705;SDS011;19094;50.972;3.538;2022-07-29T14:01:25;10.68;;;2.30;;
32705;SDS011;19094;50.972;3.538;2022-07-29T14:03:51;7.40;;;2.20;;
32705;SDS011;19094;50.972;3.538;2022-07-29T14:06:17;9.05;;;2.33;;
32705;SDS011;19094;50.972;3.538;2022-07-29T14:08:44;6.60;;;2.78;;
32705;SDS011;19094;50.972;3.538;2022-07-29T14:11:10;6.38;;;2.58;;
32705;SDS011;19094;50.972;3.538;2022-07-29T14:13:35;5.28;;;2.95;;
32705;SDS011;19094;50.972;3.538;2022-07-29T14:16:01;7.13;;;3.17;;
32705;SDS011;19094;50.972;3.538;2022-07-29T14:18:27;12.25;;;2.80;;
32705;SDS011;19094;50.972;3.538;2022-07-29T14:20:52;4.22;;;2.20;;
32705;SDS011;19094;50.972;3.538;2022-07-29T14:23:18;13.35;;;3.00;;
32705;SDS011;19094;50.972;3.538;2022-07-29T14:25:44;6.22;;;2.20;;
32705;SDS011;19094;50.972;3.538;2022-07-29T14:28:10;8.52;;;2.72;;
32705;SDS011;19094;50.972;3.538;2022-07-29T14:30:35;3.83;;;2.40;;
32705;SDS011;19094;50.972;3.538;2022-07-29T14:33:01;5.32;;;2.78;;
32705;SDS011;19094;50.972;3.538;2022-07-29T14:35:28;10.23;;;2.58;;
32705;SDS011;19094;50.972;3.538;2022-07-29T14:37:53;3.90;;;2.22;;
32705;SDS011;19094;50.972;3.538;2022-07-29T14:40:19;7.38;;;2.28;;
32705;SDS011;19094;50.972;3.538;2022-07-29T14:42:45;3.50;;;2.58;;
32705;SDS011;19094;50.972;3.538;2022-07-29T14:45:10;3.35;;;2.70;;
32705;SDS011;19094;50.972;3.538;2022-07-29T14:47:36;6.15;;;2.35;;
32705;SDS011;19094;50.972;3.538;2022-07-29T14:50:03;16.38;;;3.25;;
32705;SDS011;19094;50.972;3.538;2022-07-29T14:52:30;6.72;;;2.65;;
32705;SDS011;19094;50.972;3.538;2022-07-29T14:54:55;9.57;;;2.83;;
32705;SDS011;19094;50.972;3.538;2022-07-29T14:57:21;7.28;;;2.60;;
32705;SDS011;19094;50.972;3.538;2022-07-29T14:59:46;10.02;;;2.45;;
32705;SDS011;19094;50.972;3.538;2022-07-29T15:02:12;4.07;;;2.70;;
32705;SDS011;19094;50.972;3.538;2022-07-29T15:04:38;8.85;;;2.58;;
32705;SDS011;19094;50.972;3.538;2022-07-29T15:07:03;5.63;;;2.53;;
32705;SDS011;19094;50.972;3.538;2022-07-29T15:09:29;5.72;;;2.70;;
32705;SDS011;19094;50.972;3.538;2022-07-29T15:11:55;9.05;;;2.88;;
32705;SDS011;19094;50.972;3.538;2022-07-29T15:14:21;6.85;;;2.63;;
32705;SDS011;19094;50.972;3.538;2022-07-29T15:16:47;5.28;;;2.55;;
32705;SDS011;19094;50.972;3.538;2022-07-29T15:19:13;10.90;;;3.38;;
32705;SDS011;19094;50.972;3.538;2022-07-29T15:21:38;12.60;;;3.20;;
32705;SDS011;19094;50.972;3.538;2022-07-29T15:24:04;7.72;;;2.60;;
32705;SDS011;19094;50.972;3.538;2022-07-29T15:26:32;6.60;;;2.42;;
32705;SDS011;19094;50.972;3.538;2022-07-29T15:28:58;11.60;;;2.60;;
32705;SDS011;19094;50.972;3.538;2022-07-29T15:31:24;10.07;;;3.45;;
32705;SDS011;19094;50.972;3.538;2022-07-29T15:33:50;7.75;;;3.22;;
32705;SDS011;19094;50.972;3.538;2022-07-29T15:36:15;7.60;;;2.90;;
32705;SDS011;19094;50.972;3.538;2022-07-29T15:38:41;11.00;;;3.15;;
32705;SDS011;19094;50.972;3.538;2022-07-29T15:41:07;10.85;;;2.85;;
32705;SDS011;19094;50.972;3.538;2022-07-29T15:43:33;4.30;;;2.55;;
32705;SDS011;19094;50.972;3.538;2022-07-29T15:46:00;5.68;;;2.83;;
32705;SDS011;19094;50.972;3.538;2022-07-29T15:48:44;8.75;;;3.28;;
32705;SDS011;19094;50.972;3.538;2022-07-29T15:51:10;9.13;;;2.85;;
32705;SDS011;19094;50.972;3.538;2022-07-29T15:53:36;7.18;;;3.08;;
32705;SDS011;19094;50.972;3.538;2022-07-29T15:56:02;8.25;;;3.30;;
32705;SDS011;19094;50.972;3.538;2022-07-29T15:58:28;11.13;;;3.05;;